Flight Track Log - Related Links

Times and Time Zones

All times are in EDT time to prevent confusion due to time zone crossing. See the SWA17 flight status page for this flight to view local times or setup timezone preferences in your user account.

Time Position Orientation Groundspeed Altitude Reporting Facility
EDT Latitude Longitude Course Direction KTS MPH feet Rate Location/Type
08:46 39.1500 -76.6500 131° Southeast 156 180 1,700  Level Potomac TRACON
08:47 39.1167 -76.6000 131° Southeast 217 250 3,700 2,368 Climbing Potomac TRACON
08:48 39.0667 -76.5667 153° Southeast 227 261 6,200 2,632 Climbing Potomac TRACON
08:49 39.0000 -76.5333 159° South 267 307 8,700 2,450 Climbing Potomac TRACON
08:50 38.9167 -76.4833 155° Southeast 313 360 11,100 2,600 Climbing Potomac TRACON
08:51 38.8333 -76.4833 180° South 362 417 13,900 1,300 Climbing Potomac TRACON
08:53 38.6439 -76.6522 215° Southwest 375 432 15,500 1,360 Climbing Washington Center
08:54 38.5619 -76.7200 213° Southwest 364 419 18,500 2,847 Climbing Washington Center
08:55 38.4600 -76.7158 178° South 347 399 21,100 2,269 Climbing Washington Center
08:56 38.3494 -76.7011 174° South 368 423 23,000 1,721 Climbing Washington Center
08:57 38.2433 -76.6836 173° South 376 433 24,600 1,488 Climbing Washington Center
08:58 38.1331 -76.6689 174° South 394 453 26,000 969 Climbing Washington Center
08:59 37.9956 -76.6483 173° South 406 467 26,700 1,385 Climbing Washington Center
09:00 37.8828 -76.6547 183° South 406 467 29,000 1,934 Climbing Washington Center
09:01 37.7658 -76.6689 185° South 406 467 30,600 1,488 Climbing Washington Center
09:02 37.6447 -76.6856 186° South 423 487 32,000 706 Climbing Washington Center
09:03 37.5258 -76.6994 185° South 428 493 32,000  Level Washington Center
09:04 37.4086 -76.7214 188° South 434 499 32,000  Level Washington Center
09:05 37.2914 -76.7692 198° South 434 499 32,000  Level Washington Center
09:06 37.1803 -76.8197 200° South 434 499 32,000  Level Washington Center
09:07 37.0714 -76.8675 199° South 434 499 32,000  Level Washington Center
09:08 36.9603 -76.9122 198° South 423 487 32,000 595 Level Washington Center
09:09 36.8492 -76.9572 198° South 423 487 33,200 1,339 Climbing Washington Center
09:10 36.7403 -77.0019 198° South 423 487 34,700 992 Climbing Washington Center
09:11 36.6392 -77.0750 210° Southwest 423 487 35,200 1,059 Climbing Washington Center
09:12 36.5442 -77.1614 216° Southwest 423 487 36,800 1,424 Climbing Washington Center
09:13 36.4514 -77.2472 217° Southwest 423 487 38,000 595 Climbing Washington Center
09:14 36.3583 -77.3303 216° Southwest 423 487 38,000  Level Washington Center
09:15 36.2611 -77.4158 215° Southwest 429 494 38,000  Level Washington Center
09:16 36.1703 -77.4961 216° Southwest 423 487 38,000  Level Washington Center
09:17 36.0750 -77.5786 215° Southwest 423 487 38,000  Level Washington Center
09:18 35.9817 -77.6583 215° Southwest 423 487 38,000  Level Washington Center
09:19 35.8842 -77.7428 215° Southwest 423 487 38,000  Level Washington Center
09:20 35.7911 -77.8222 215° Southwest 423 487 38,000  Level Washington Center
09:21 35.6956 -77.9042 215° Southwest 423 487 38,000  Level Washington Center
09:22 35.6022 -77.9856 215° Southwest 423 487 38,000  Level Washington Center
09:23 35.5089 -78.0644 215° Southwest 423 487 38,000  Level Washington Center
09:25 35.4111 -78.1431 213° Southwest 423 487 38,000  Level Washington Center
09:26 35.2944 -78.2336 212° Southwest 423 487 38,000  Level Washington Center
09:27 35.1989 -78.3092 213° Southwest 429 494 38,000 -32 Level Washington Center
09:29 34.9997 -78.4606 212° Southwest 422 486 37,900 -778 Descending Jacksonville Center
09:30 34.9022 -78.5339 212° Southwest 422 486 35,600 -2,600 Descending Jacksonville Center
09:31 34.8067 -78.6122 214° Southwest 422 486 32,700 -2,650 Descending Jacksonville Center
09:32 34.7092 -78.6825 211° Southwest 422 486 30,300 -2,350 Descending Jacksonville Center
09:33 34.6197 -78.7553 214° Southwest 417 480 28,000 -1,150 Descending Jacksonville Center
09:34 34.5281 -78.8225 211° Southwest 404 465 28,000  Level Jacksonville Center
09:35 34.4367 -78.8972 214° Southwest 385 443 28,000  Level Jacksonville Center
09:36 34.3531 -78.9642 213° Southwest 373 429 28,000 -300 Level Jacksonville Center
09:37 34.2672 -79.0233 210° Southwest 367 422 27,400 -800 Descending Jacksonville Center
09:38 34.1747 -79.0675 202° Southwest 361 415 26,400 -1,000 Descending Jacksonville Center
09:39 34.0842 -79.1067 200° South 356 410 25,400 -1,000 Descending Jacksonville Center
09:40 33.9894 -79.1481 200° South 356 410 24,400 -700 Descending Jacksonville Center
09:41 33.9031 -79.1894 202° Southwest 350 403 24,000 -200 Descending Jacksonville Center
09:42 33.8144 -79.2281 200° South 345 397 24,000  Level Jacksonville Center
09:43 33.7325 -79.2814 208° Southwest 345 397 24,000 -1,050 Level Jacksonville Center
09:44 33.6550 -79.3397 212° Southwest 340 391 21,900 -2,800 Descending Jacksonville Center
09:45 33.5711 -79.4028 212° Southwest 346 398 18,400 -3,200 Descending Jacksonville Center
09:46 33.4831 -79.4661 211° Southwest 361 415 15,500 -3,100 Descending Jacksonville Center
09:47 33.3953 -79.5342 213° Southwest 366 421 12,200 -2,300 Descending Jacksonville Center
09:48 33.3114 -79.5969 212° Southwest 372 428 10,900 -650 Descending Jacksonville Center
09:49 33.2356 -79.6542 212° Southwest 354 407 10,900 -397 Level Jacksonville Center
09:50 33.1619 -79.7117 213° Southwest 335 386 10,100 -1,050 Descending Jacksonville Center
09:51 33.0922 -79.7661 213° Southwest 322 371 8,800 -1,361 Descending Jacksonville Center
09:52 33.0267 -79.8181 214° Southwest 306 352 7,400 -1,400 Descending Jacksonville Center
09:53 32.9592 -79.8697 213° Southwest 298 343 6,000 -1,200 Descending Jacksonville Center
09:54 32.9039 -79.9136 214° Southwest 293 337 5,000 -545 Descending Jacksonville Center
09:55 32.8400 -79.9503 206° Southwest 278 320 4,900 -150 Descending Jacksonville Center
09:56 32.7822 -79.9769 201° Southwest 249 287 4,700 -203 Descending Jacksonville Center
09:58 32.8833 -80.0333 348° North  Level FlightAware Approximate
10:05 32.8986 -80.0405 348° North  Level Estimated
10:06 32.8986 -80.0405 348° North  Level Estimated
10:07 32.8986 -80.0405 348° North  Level Estimated
10:08 32.8986 -80.0405 348° North  Level Estimated
10:09 32.8986 -80.0405 348° North  Level Estimated
10:10 32.8986 -80.0405 348° North  Level Estimated
10:11 32.8986 -80.0405 348° North  Level Estimated
10:12 32.8986 -80.0405 348° North  Level Estimated

Login

Don't have an account? Register now (free) for customized features, flight alerts, and more!